Time;durP1;ratioP1;P1;durP2;ratioP2;P2;SDS_P1;SDS_P2;PMS_P1;PMS_P2;Temp;Humidity;BMP_temperature;BMP_pressure;BME280_temperature;BME280_humidity;BME280_pressure;Samples;Min_cycle;Max_cycle;Signal;HPM_P1;HPM_P2
2023/07/28 00:00:31;;;;;;;6.55;4.50;;;;;;;20.85;47.27;100010.56;5104324;28;20062;-22
2023/07/28 00:02:56;;;;;;;8.40;5.60;;;;;;;20.44;48.26;100017.19;5104052;28;20633;-24
2023/07/28 00:05:22;;;;;;;7.55;5.22;;;;;;;20.44;45.83;100011.78;5104029;28;20060;-23
2023/07/28 00:07:47;;;;;;;10.10;5.63;;;;;;;20.43;46.01;100017.47;5104183;28;20156;-23
2023/07/28 00:10:13;;;;;;;8.68;5.07;;;;;;;21.02;47.10;100010.09;5104116;28;20030;-23
2023/07/28 00:12:41;;;;;;;8.18;5.32;;;;;;;20.45;46.48;100010.69;5104052;28;20502;-23
2023/07/28 00:15:07;;;;;;;9.13;5.35;;;;;;;20.42;46.29;100003.13;5103820;28;20031;-23
2023/07/28 00:17:32;;;;;;;8.48;5.07;;;;;;;20.45;48.20;100008.00;5103928;28;20703;-24
2023/07/28 00:19:58;;;;;;;7.30;4.97;;;;;;;20.19;46.06;100017.44;5104073;28;20110;-24
2023/07/28 00:22:23;;;;;;;8.85;5.00;;;;;;;19.97;47.38;100020.59;5104188;28;20027;-24
2023/07/28 00:24:48;;;;;;;8.38;4.90;;;;;;;20.40;47.04;100012.66;5103804;28;20505;-23
2023/07/28 00:27:16;;;;;;;6.63;4.63;;;;;;;20.48;46.88;100015.53;5103629;28;20039;-23
2023/07/28 00:29:42;;;;;;;7.43;5.03;;;;;;;20.15;47.44;100028.03;5104178;28;20069;-27
2023/07/28 00:32:08;;;;;;;8.57;5.10;;;;;;;19.99;47.37;100010.28;5103894;28;20165;-24
2023/07/28 00:34:33;;;;;;;8.38;5.20;;;;;;;20.30;46.74;100015.44;5103591;28;20058;-24
2023/07/28 00:37:01;;;;;;;7.68;5.15;;;;;;;21.19;46.51;100020.50;5103865;28;20500;-26
2023/07/28 00:39:26;;;;;;;;;;;;;;;21.37;45.68;100027.84;5104027;28;20031;-24
2023/07/28 00:41:52;;;;;;;7.25;4.90;;;;;;;21.26;45.97;100029.84;5105252;28;19912;-23
2023/07/28 00:44:17;;;;;;;7.55;4.70;;;;;;;21.54;45.64;100040.13;5107113;28;20031;-23
2023/07/28 00:46:44;;;;;;;7.32;5.28;;;;;;;21.76;44.96;100039.53;5107807;28;20023;-26
2023/07/28 00:49:09;;;;;;;9.63;5.03;;;;;;;21.43;45.00;100047.56;5107127;28;20066;-26
2023/07/28 00:51:38;;;;;;;7.70;4.60;;;;;;;21.01;46.54;100032.91;5107490;28;20118;-24
2023/07/28 00:54:05;;;;;;;9.18;5.53;;;;;;;20.93;46.52;100039.75;5106965;28;20037;-25
2023/07/28 00:56:30;;;;;;;9.70;5.55;;;;;;;21.05;46.58;100037.44;5107236;28;20015;-25
2023/07/28 00:58:56;;;;;;;8.77;5.25;;;;;;;21.25;45.90;100036.41;5107121;28;20023;-23
2023/07/28 01:01:22;;;;;;;8.65;5.93;;;;;;;20.73;46.08;100038.06;5106954;28;20051;-24
2023/07/28 01:03:48;;;;;;;9.55;5.65;;;;;;;21.13;45.98;100036.00;5107047;28;20545;-24
2023/07/28 01:06:29;;;;;;;9.43;6.10;;;;;;;21.07;45.78;100035.25;5107174;28;20032;-24
2023/07/28 01:09:05;;;;;;;9.02;6.10;;;;;;;20.53;46.42;100040.97;5107011;27;20032;-23
2023/07/28 01:11:31;;;;;;;9.65;5.85;;;;;;;19.52;49.12;100044.13;5106439;28;20621;-24
2023/07/28 01:13:57;;;;;;;9.95;6.65;;;;;;;19.05;49.99;100043.50;5106778;28;20532;-24
2023/07/28 01:16:23;;;;;;;9.68;6.40;;;;;;;18.78;50.76;100041.94;5106934;28;20028;-24
2023/07/28 01:18:49;;;;;;;10.40;6.47;;;;;;;18.35;51.71;100049.56;5106939;28;20033;-23
2023/07/28 01:21:21;;;;;;;7.80;6.00;;;;;;;18.08;52.58;100044.41;5106412;28;20028;-24
2023/07/28 01:24:11;;;;;;;8.73;6.93;;;;;;;17.83;53.37;100042.50;5106742;28;20031;-23
2023/07/28 01:26:37;;;;;;;9.90;5.90;;;;;;;17.63;53.89;100044.06;5106324;28;20023;-24
2023/07/28 01:29:05;;;;;;;7.75;5.97;;;;;;;17.79;54.62;100057.56;5106531;28;20188;-23
2023/07/28 01:31:31;;;;;;;8.90;6.70;;;;;;;17.92;54.18;100056.28;5106268;28;20035;-27
2023/07/28 01:33:56;;;;;;;8.40;6.50;;;;;;;17.93;56.02;100058.72;5106202;28;20027;-24
2023/07/28 01:36:22;;;;;;;11.52;6.65;;;;;;;17.61;54.61;100035.44;5106371;28;20078;-24
2023/07/28 01:38:47;;;;;;;8.90;6.53;;;;;;;17.61;56.01;100061.56;5106273;28;20015;-23
2023/07/28 01:41:13;;;;;;;9.27;7.22;;;;;;;17.64;55.35;100059.16;5106405;28;20420;-26
2023/07/28 01:43:38;;;;;;;8.02;6.30;;;;;;;17.26;56.27;100071.16;5106329;28;20020;-24
2023/07/28 01:46:03;;;;;;;8.30;6.70;;;;;;;17.22;57.60;100067.38;5106160;28;20388;-24
2023/07/28 01:48:29;;;;;;;9.43;6.63;;;;;;;17.38;56.73;100068.25;5106061;28;20035;-25
2023/07/28 01:50:55;;;;;;;9.45;6.82;;;;;;;17.49;56.03;100061.84;5106140;28;20054;-23
2023/07/28 01:53:20;;;;;;;9.30;6.90;;;;;;;17.65;55.94;100068.06;5105161;28;20055;-25
2023/07/28 01:55:46;;;;;;;13.45;5.68;;;;;;;17.77;54.89;100065.13;5105315;28;20127;-24
2023/07/28 01:58:11;;;;;;;11.25;5.75;;;;;;;17.70;55.19;100065.38;5105843;28;20320;-24
2023/07/28 02:00:37;;;;;;;7.82;5.22;;;;;;;17.45;56.10;100063.44;5105613;28;20123;-23
2023/07/28 02:03:03;;;;;;;7.05;4.57;;;;;;;17.36;57.20;100062.31;5105887;28;20031;-24
2023/07/28 02:05:29;;;;;;;8.98;5.97;;;;;;;17.24;57.51;100068.75;5105687;28;20032;-24
2023/07/28 02:07:55;;;;;;;8.02;5.00;;;;;;;17.20;57.54;100070.34;5105982;28;20023;-24
2023/07/28 02:10:23;;;;;;;7.85;5.20;;;;;;;17.00;58.18;100062.97;5105681;28;20080;-24
2023/07/28 02:12:49;;;;;;;7.88;4.88;;;;;;;17.09;58.06;100070.56;5106011;28;20024;-24
2023/07/28 02:15:14;;;;;;;8.50;4.88;;;;;;;17.09;57.91;100073.25;5105599;28;20036;-23
2023/07/28 02:17:39;;;;;;;8.73;5.07;;;;;;;16.73;59.72;100075.69;5105851;28;20058;-24
2023/07/28 02:20:05;;;;;;;6.97;4.85;;;;;;;16.90;60.01;100076.38;5105522;28;20032;-24
2023/07/28 02:22:31;;;;;;;7.60;5.40;;;;;;;17.48;56.36;100085.25;5105454;28;20028;-24
2023/07/28 02:25:00;;;;;;;11.18;5.15;;;;;;;17.04;57.05;100085.63;5105422;28;20242;-23
2023/07/28 02:27:25;;;;;;;10.48;5.38;;;;;;;16.89;57.72;100082.81;5103502;28;20520;-24
2023/07/28 02:29:51;;;;;;;11.90;5.18;;;;;;;16.52;60.02;100083.63;5105613;28;20503;-25
2023/07/28 02:32:16;;;;;;;8.93;5.30;;;;;;;16.48;60.52;100088.69;5105300;28;20020;-26
2023/07/28 02:34:41;;;;;;;11.40;5.60;;;;;;;16.41;60.14;100087.31;5105379;28;20643;-23
2023/07/28 02:37:07;;;;;;;12.60;5.43;;;;;;;16.21;62.08;100093.31;5105335;28;20033;-24
2023/07/28 02:39:32;;;;;;;8.38;5.15;;;;;;;16.06;61.98;100097.50;5104643;28;20477;-24
2023/07/28 02:42:00;;;;;;;9.80;5.85;;;;;;;15.88;63.48;100099.75;5105232;28;20053;-24
2023/07/28 02:44:25;;;;;;;8.07;5.65;;;;;;;15.60;64.04;100093.47;5105135;27;20028;-23
2023/07/28 02:46:51;;;;;;;10.55;6.53;;;;;;;15.79;64.58;100086.75;5104972;28;20471;-24
2023/07/28 02:49:16;;;;;;;11.45;5.70;;;;;;;15.85;64.70;100090.28;5104867;28;20029;-24
2023/07/28 02:51:41;;;;;;;10.65;4.95;;;;;;;15.86;63.70;100089.22;5105237;28;20030;-24
2023/07/28 02:54:07;;;;;;;8.52;5.00;;;;;;;15.59;64.43;100087.28;5104800;28;20019;-24
2023/07/28 02:56:37;;;;;;;8.63;5.15;;;;;;;15.42;65.04;100086.53;5104262;28;20046;-24
2023/07/28 02:59:02;;;;;;;12.25;5.18;;;;;;;15.42;65.32;100084.66;5104640;28;20101;-29
2023/07/28 03:01:32;;;;;;;9.43;5.53;;;;;;;15.42;66.22;100081.16;5104598;28;20051;-23
2023/07/28 03:04:02;;;;;;;8.45;6.07;;;;;;;14.98;67.57;100081.16;5104634;28;20482;-24
2023/07/28 03:06:28;;;;;;;11.38;6.20;;;;;;;14.65;69.59;100085.50;5104657;28;20488;-24
2023/07/28 03:08:53;;;;;;;11.13;7.22;;;;;;;14.79;67.87;100084.13;5104856;28;20032;-24
2023/07/28 03:11:19;;;;;;;11.38;8.55;;;;;;;15.04;66.95;100090.91;5104298;28;20023;-25
2023/07/28 03:13:44;;;;;;;11.48;7.70;;;;;;;14.77;68.62;100102.34;5105121;28;20027;-25
2023/07/28 03:16:10;;;;;;;10.20;7.53;;;;;;;14.92;68.27;100104.44;5104466;28;20076;-24
2023/07/28 03:18:35;;;;;;;9.00;7.25;;;;;;;15.39;65.88;100113.94;5104903;28;20072;-24
2023/07/28 03:21:01;;;;;;;8.15;7.15;;;;;;;15.58;64.35;100112.53;5104743;28;20129;-23
2023/07/28 03:23:27;;;;;;;10.68;7.22;;;;;;;15.84;65.29;100115.56;5104276;27;20428;-24
2023/07/28 03:25:52;;;;;;;12.02;6.78;;;;;;;15.93;63.66;100122.09;5104641;28;20416;-23
2023/07/28 03:28:17;;;;;;;10.80;7.30;;;;;;;16.04;62.83;100110.41;5104229;28;20519;-24
2023/07/28 03:30:43;;;;;;;9.35;6.30;;;;;;;16.05;63.05;100112.00;5104752;28;20096;-24
2023/07/28 03:33:08;;;;;;;10.23;6.68;;;;;;;15.96;65.59;100118.13;5104339;28;20088;-26
2023/07/28 03:35:34;;;;;;;9.52;7.47;;;;;;;16.04;63.80;100123.84;5104063;28;20063;-24
2023/07/28 03:37:59;;;;;;;10.05;6.78;;;;;;;16.21;64.17;100125.63;5104355;28;20066;-24
2023/07/28 03:40:25;;;;;;;12.20;7.80;;;;;;;16.26;63.47;100126.47;5104704;28;20134;-24
2023/07/28 03:42:51;;;;;;;10.73;6.82;;;;;;;16.09;64.90;100123.06;5104301;28;20125;-24
2023/07/28 03:45:17;;;;;;;9.88;7.10;;;;;;;16.32;63.56;100121.94;5104512;28;20101;-24
2023/07/28 03:47:42;;;;;;;9.35;6.55;;;;;;;16.19;66.23;100112.41;5104406;28;20553;-23
2023/07/28 03:50:08;;;;;;;10.50;7.55;;;;;;;16.18;66.07;100115.34;5104325;28;20210;-24
2023/07/28 03:52:33;;;;;;;15.75;7.18;;;;;;;16.30;64.32;100129.47;5103964;28;20016;-23
2023/07/28 03:54:59;;;;;;;14.38;7.60;;;;;;;16.36;65.28;100131.13;5103931;28;20475;-24
2023/07/28 03:57:24;;;;;;;11.38;7.78;;;;;;;16.48;65.37;100129.06;5104312;28;20039;-24
2023/07/28 03:59:50;;;;;;;14.10;7.95;;;;;;;16.61;63.42;100140.50;5103986;28;20058;-24
2023/07/28 04:02:15;;;;;;;13.90;8.50;;;;;;;16.71;63.25;100140.56;5104376;28;20027;-26
2023/07/28 04:04:41;;;;;;;14.30;7.85;;;;;;;16.78;62.63;100141.19;5104413;28;20020;-24
2023/07/28 04:07:06;;;;;;;9.10;7.68;;;;;;;16.58;62.14;100135.63;5103726;28;20088;-23
2023/07/28 04:09:31;;;;;;;14.05;7.95;;;;;;;16.66;62.47;100143.25;5104051;28;20084;-24
2023/07/28 04:11:57;;;;;;;14.48;8.25;;;;;;;16.63;62.97;100128.41;5104107;28;20038;-24
2023/07/28 04:14:22;;;;;;;8.75;7.45;;;;;;;16.79;62.55;100137.41;5103901;28;20027;-23
2023/07/28 04:16:50;;;;;;;8.88;6.88;;;;;;;16.82;62.70;100144.19;5105933;28;20089;-24
2023/07/28 04:19:16;;;;;;;9.50;6.95;;;;;;;16.97;61.77;100144.28;5108095;28;20129;-29
2023/07/28 04:21:41;;;;;;;12.27;7.35;;;;;;;16.63;63.11;100138.34;5108009;27;20031;-24
2023/07/28 04:24:07;;;;;;;8.63;7.18;;;;;;;16.58;64.72;100155.28;5107890;28;20119;-24
2023/07/28 04:26:33;;;;;;;8.82;7.43;;;;;;;16.54;65.22;100150.69;5107978;28;20020;-25
2023/07/28 04:28:58;;;;;;;11.93;7.22;;;;;;;16.59;64.51;100153.38;5107551;28;20043;-24
2023/07/28 04:31:24;;;;;;;9.82;7.07;;;;;;;16.54;64.75;100145.28;5107711;28;20030;-24
2023/07/28 04:33:49;;;;;;;9.00;6.55;;;;;;;16.76;63.81;100146.00;5107779;28;20128;-24
2023/07/28 04:36:15;;;;;;;9.50;6.30;;;;;;;16.67;63.58;100161.00;5107858;28;20423;-23
2023/07/28 04:38:40;;;;;;;11.38;7.65;;;;;;;16.74;63.34;100158.91;5107280;28;20427;-23
2023/07/28 04:41:05;;;;;;;10.95;7.70;;;;;;;16.84;64.21;100160.91;5107522;28;20035;-24
2023/07/28 04:43:31;;;;;;;10.43;7.80;;;;;;;17.07;63.80;100167.81;5107249;28;20020;-24
2023/07/28 04:45:56;;;;;;;9.25;7.22;;;;;;;17.02;63.94;100162.38;5107706;28;20016;-23
2023/07/28 04:48:23;;;;;;;10.20;7.07;;;;;;;17.24;63.77;100168.47;5107554;28;20110;-24
2023/07/28 04:50:48;;;;;;;8.70;6.60;;;;;;;17.61;62.52;100164.88;5107014;28;20023;-24
2023/07/28 04:53:14;;;;;;;8.98;6.70;;;;;;;17.84;61.52;100173.63;5107115;28;20032;-23
2023/07/28 04:55:40;;;;;;;9.32;6.85;;;;;;;17.81;61.76;100166.03;5106629;28;20028;-24
2023/07/28 04:58:05;;;;;;;9.48;6.65;;;;;;;17.98;60.02;100168.53;5107471;28;20030;-24
2023/07/28 05:00:31;;;;;;;8.93;6.63;;;;;;;17.99;59.75;100168.28;5106881;27;20506;-24
2023/07/28 05:02:56;;;;;;;9.18;6.20;;;;;;;18.35;58.20;100167.53;5107143;28;20481;-24
2023/07/28 05:05:22;;;;;;;8.27;6.10;;;;;;;18.68;57.87;100180.53;5106968;28;20111;-26
2023/07/28 05:07:48;;;;;;;9.05;5.70;;;;;;;18.90;54.61;100168.69;5107297;28;20423;-24
2023/07/28 05:10:13;;;;;;;6.32;5.07;;;;;;;18.84;56.01;100165.16;5107213;28;20023;-24
2023/07/28 05:12:39;;;;;;;7.70;5.53;;;;;;;18.92;56.28;100162.97;5107304;27;20023;-23
2023/07/28 05:15:05;;;;;;;7.47;5.53;;;;;;;19.19;54.92;100165.41;5106872;28;20534;-24
2023/07/28 05:17:33;;;;;;;10.93;4.78;;;;;;;19.28;52.93;100175.34;5106728;28;20089;-23
2023/07/28 05:19:59;;;;;;;6.35;4.90;;;;;;;19.32;52.40;100180.22;5107000;28;20129;-23
2023/07/28 05:22:24;;;;;;;5.63;4.63;;;;;;;19.24;53.36;100179.69;5106343;28;20069;-24
2023/07/28 05:24:49;;;;;;;6.43;4.97;;;;;;;19.38;52.37;100182.63;5106693;28;20042;-24
2023/07/28 05:27:15;;;;;;;6.97;4.90;;;;;;;19.56;51.99;100189.34;5106078;28;20443;-23
2023/07/28 05:29:40;;;;;;;6.63;4.55;;;;;;;19.77;50.61;100183.91;5105792;28;20072;-23
2023/07/28 05:32:06;;;;;;;5.55;4.15;;;;;;;19.77;51.13;100186.59;5106586;28;20028;-24
2023/07/28 05:34:32;;;;;;;6.18;4.68;;;;;;;19.83;50.13;100182.78;5106517;28;20121;-25
2023/07/28 05:36:57;;;;;;;6.65;4.22;;;;;;;19.96;49.34;100190.31;5106589;28;20019;-23
2023/07/28 05:39:23;;;;;;;6.00;3.42;;;;;;;20.27;47.74;100192.84;5106201;28;20054;-24
2023/07/28 05:41:48;;;;;;;5.15;3.70;;;;;;;20.38;47.74;100199.00;5106737;28;20020;-23
2023/07/28 05:44:14;;;;;;;7.28;4.53;;;;;;;20.52;47.38;100196.47;5106404;27;20032;-23
2023/07/28 05:46:39;;;;;;;7.30;4.05;;;;;;;20.70;46.99;100203.13;5105043;28;20423;-23
2023/07/28 05:49:05;;;;;;;6.07;4.28;;;;;;;20.55;46.70;100207.53;5106287;28;20511;-23
2023/07/28 05:51:31;;;;;;;5.60;3.97;;;;;;;20.52;47.45;100193.78;5105773;28;20023;-24
2023/07/28 05:53:56;;;;;;;6.05;3.90;;;;;;;20.69;46.20;100202.31;5106279;28;20020;-24
2023/07/28 05:56:22;;;;;;;6.35;4.18;;;;;;;20.73;45.56;100208.00;5106249;28;20032;-24
2023/07/28 05:58:48;;;;;;;8.15;4.63;;;;;;;21.05;45.34;100207.47;5106250;28;20043;-26
2023/07/28 06:01:13;;;;;;;6.55;4.20;;;;;;;20.99;43.67;100214.03;5105890;27;20043;-24
2023/07/28 06:03:41;;;;;;;6.30;3.95;;;;;;;20.98;43.34;100215.91;5105988;28;20488;-24
2023/07/28 06:06:07;;;;;;;6.20;3.95;;;;;;;21.01;44.21;100209.13;5106109;28;20493;-22
2023/07/28 06:08:32;;;;;;;5.68;3.70;;;;;;;21.08;44.41;100215.00;5105986;28;20035;-23
2023/07/28 06:10:58;;;;;;;5.47;3.78;;;;;;;21.18;43.54;100206.78;5105736;28;20027;-24
2023/07/28 06:13:23;;;;;;;6.15;3.88;;;;;;;21.30;43.60;100213.72;5105652;28;20034;-23
2023/07/28 06:15:49;;;;;;;5.40;3.90;;;;;;;21.35;42.75;100211.78;5105978;28;20477;-24
2023/07/28 06:18:16;;;;;;;8.25;3.80;;;;;;;21.53;43.48;100207.53;5105685;28;20024;-23
2023/07/28 06:20:45;;;;;;;6.00;3.73;;;;;;;21.71;42.65;100210.59;5105541;28;20080;-24
2023/07/28 06:23:10;;;;;;;6.28;4.82;;;;;;;21.92;41.29;100211.16;5105334;28;20330;-24
2023/07/28 06:25:38;;;;;;;5.75;4.30;;;;;;;21.75;41.77;100214.34;5105492;28;20024;-25
2023/07/28 06:28:03;;;;;;;8.95;4.32;;;;;;;21.84;41.47;100215.31;5105712;27;20020;-25
2023/07/28 06:30:29;;;;;;;7.00;4.00;;;;;;;21.73;41.29;100216.56;5105697;28;20038;-25
2023/07/28 06:32:54;;;;;;;6.65;4.10;;;;;;;21.84;40.99;100218.84;5105349;28;20454;-25
2023/07/28 06:35:20;;;;;;;5.38;3.80;;;;;;;22.01;39.09;100209.41;5105439;27;20039;-24
2023/07/28 06:37:45;;;;;;;6.05;4.57;;;;;;;22.08;39.57;100196.28;5105609;28;20034;-25
2023/07/28 06:40:10;;;;;;;6.80;4.07;;;;;;;22.32;39.26;100209.81;5104909;28;20034;-25
2023/07/28 06:42:36;;;;;;;7.13;3.75;;;;;;;22.26;38.47;100205.56;5105436;28;20473;-27
2023/07/28 06:45:05;;;;;;;5.72;3.60;;;;;;;22.45;38.58;100209.09;5105037;28;20026;-25
2023/07/28 06:47:31;;;;;;;6.55;3.90;;;;;;;22.64;37.23;100198.19;5104703;28;20105;-26
2023/07/28 06:49:56;;;;;;;6.68;3.72;;;;;;;22.77;36.91;100196.63;5105183;28;20069;-24
2023/07/28 06:52:22;;;;;;;4.88;3.47;;;;;;;22.74;38.63;100189.09;5104888;28;20059;-24
2023/07/28 06:54:49;;;;;;;5.70;3.88;;;;;;;23.06;37.32;100196.44;5104663;28;20030;-27
2023/07/28 06:57:15;;;;;;;5.72;3.53;;;;;;;23.13;38.25;100189.78;5105129;28;20051;-23
2023/07/28 06:59:41;;;;;;;6.13;3.70;;;;;;;22.97;38.64;100183.81;5104806;28;20050;-23
2023/07/28 07:02:07;;;;;;;7.38;3.88;;;;;;;23.01;38.60;100182.09;5104518;28;20084;-27
2023/07/28 07:04:32;;;;;;;7.65;3.75;;;;;;;23.33;38.03;100183.16;5104425;28;20027;-24
2023/07/28 07:06:57;;;;;;;4.65;3.45;;;;;;;23.43;38.16;100193.84;5104765;28;20066;-24
2023/07/28 07:09:23;;;;;;;9.02;3.42;;;;;;;23.50;39.07;100172.50;5104684;28;20032;-24
2023/07/28 07:11:48;;;;;;;5.13;3.50;;;;;;;23.76;38.09;100177.41;5104650;28;20024;-26
2023/07/28 07:14:14;;;;;;;7.97;3.75;;;;;;;23.67;38.37;100175.41;5104806;28;20025;-24
2023/07/28 07:16:40;;;;;;;6.07;4.10;;;;;;;23.80;37.80;100178.44;5104333;28;20141;-24
2023/07/28 07:19:05;;;;;;;7.47;3.58;;;;;;;23.84;36.52;100180.28;5104326;28;20035;-24
2023/07/28 07:21:31;;;;;;;5.22;3.70;;;;;;;24.13;37.30;100181.84;5104652;28;20515;-24
2023/07/28 07:23:56;;;;;;;6.93;3.75;;;;;;;23.99;36.93;100179.13;5104252;28;20103;-26
2023/07/28 07:26:22;;;;;;;5.40;3.58;;;;;;;24.16;36.80;100178.47;5104844;28;20027;-24
2023/07/28 07:28:47;;;;;;;6.13;3.83;;;;;;;24.15;35.37;100181.50;5104615;28;20063;-29
2023/07/28 07:31:14;;;;;;;7.57;3.78;;;;;;;24.42;35.56;100186.88;5104181;28;20118;-23
2023/07/28 07:33:40;;;;;;;5.70;3.80;;;;;;;24.34;36.68;100184.09;5104753;28;20066;-23
2023/07/28 07:36:11;;;;;;;4.35;3.50;;;;;;;24.35;35.41;100183.75;5104668;28;20044;-24
2023/07/28 07:38:36;;;;;;;4.82;3.20;;;;;;;24.55;34.11;100181.72;5104721;28;20028;-22
2023/07/28 07:41:02;;;;;;;6.63;4.50;;;;;;;24.39;34.54;100170.31;5104531;28;20027;-23
2023/07/28 07:43:27;;;;;;;8.23;2.95;;;;;;;24.53;33.68;100167.56;5104074;28;20432;-24
2023/07/28 07:45:55;;;;;;;9.07;4.57;;;;;;;24.51;33.68;100169.81;5104324;28;20257;-23
2023/07/28 07:48:20;;;;;;;;;;;;;;;24.54;33.01;100166.44;5104771;28;20030;-23
2023/07/28 07:50:46;;;;;;;6.93;3.57;;;;;;;24.76;33.62;100177.34;5104555;28;19986;-27
2023/07/28 07:53:11;;;;;;;8.13;3.40;;;;;;;24.91;33.77;100168.00;5108303;28;20277;-23
2023/07/28 07:55:36;;;;;;;4.57;2.90;;;;;;;25.25;33.53;100169.28;5107976;28;20035;-24
2023/07/28 07:58:03;;;;;;;5.03;2.70;;;;;;;25.69;33.04;100166.72;5108659;28;20027;-23
2023/07/28 08:00:29;;;;;;;5.70;2.83;;;;;;;25.48;31.16;100166.47;5108354;28;20031;-23
2023/07/28 08:02:54;;;;;;;6.38;3.28;;;;;;;25.42;31.65;100163.91;5108346;28;20423;-23
2023/07/28 08:05:21;;;;;;;4.38;3.00;;;;;;;25.45;32.13;100157.81;5108453;28;20035;-23
2023/07/28 08:07:47;;;;;;;5.18;3.22;;;;;;;25.50;32.61;100148.69;5108320;28;20028;-26
2023/07/28 08:10:13;;;;;;;3.70;2.85;;;;;;;25.81;30.98;100153.25;5108623;28;20184;-23
2023/07/28 08:12:38;;;;;;;6.43;2.70;;;;;;;26.15;30.37;100151.69;5107844;28;20102;-24
2023/07/28 08:15:04;;;;;;;4.97;2.90;;;;;;;26.17;30.52;100160.38;5107735;28;20027;-25
2023/07/28 08:17:29;;;;;;;4.93;2.85;;;;;;;26.24;30.39;100149.75;5108050;28;20023;-23
2023/07/28 08:19:55;;;;;;;4.47;2.30;;;;;;;26.40;30.04;100145.41;5108205;27;20543;-24
2023/07/28 08:22:20;;;;;;;3.83;2.53;;;;;;;26.67;29.54;100145.41;5108044;28;20034;-24
2023/07/28 08:24:46;;;;;;;3.50;2.20;;;;;;;26.58;29.28;100148.13;5107898;28;20040;-26
2023/07/28 08:27:13;;;;;;;4.32;2.20;;;;;;;26.78;28.99;100149.41;5107839;28;20024;-24
2023/07/28 08:29:39;;;;;;;4.30;1.65;;;;;;;26.93;28.08;100137.94;5107738;28;20109;-23
2023/07/28 08:32:05;;;;;;;3.03;2.15;;;;;;;26.92;28.06;100141.78;5107695;28;20069;-24
2023/07/28 08:34:30;;;;;;;5.50;1.98;;;;;;;27.00;26.93;100145.63;5107931;28;20084;-24
2023/07/28 08:36:55;;;;;;;6.15;2.42;;;;;;;27.45;26.98;100142.41;5107568;28;20028;-23
2023/07/28 08:39:21;;;;;;;6.03;2.00;;;;;;;27.44;26.49;100140.78;5107536;28;20028;-24
2023/07/28 08:41:46;;;;;;;2.60;1.95;;;;;;;27.51;26.03;100135.59;5107898;28;20023;-24
2023/07/28 08:44:15;;;;;;;3.30;1.50;;;;;;;27.54;26.00;100136.88;5106140;28;20427;-24
2023/07/28 08:46:40;;;;;;;4.72;2.10;;;;;;;27.76;26.38;100125.59;5107463;28;20420;-24
2023/07/28 08:49:06;;;;;;;2.97;1.90;;;;;;;27.81;25.18;100132.84;5107274;28;20488;-23
2023/07/28 08:51:32;;;;;;;3.15;1.75;;;;;;;28.06;26.64;100122.84;5107057;28;20412;-25
2023/07/28 08:53:57;;;;;;;4.13;1.92;;;;;;;28.19;25.31;100118.19;5107382;28;20428;-25
2023/07/28 08:56:24;;;;;;;3.95;1.85;;;;;;;28.20;25.41;100119.81;5107017;28;20055;-24
2023/07/28 08:58:57;;;;;;;3.17;2.10;;;;;;;27.91;25.50;100121.50;5106758;27;20043;-24
2023/07/28 09:01:23;;;;;;;2.63;1.60;;;;;;;27.98;25.27;100120.97;5106719;28;20050;-24
2023/07/28 09:03:49;;;;;;;2.40;1.60;;;;;;;27.78;25.28;100111.56;5106918;28;20032;-24
2023/07/28 09:06:14;;;;;;;3.50;2.00;;;;;;;27.93;25.57;100107.44;5107381;28;20046;-24
2023/07/28 09:08:39;;;;;;;4.28;1.88;;;;;;;28.17;24.81;100104.03;5107014;28;20030;-24
2023/07/28 09:11:06;;;;;;;4.18;2.20;;;;;;;28.07;24.71;100112.66;5106686;28;20415;-25
2023/07/28 09:13:38;;;;;;;4.22;2.33;;;;;;;27.86;25.63;100102.47;5106924;28;20034;-24
2023/07/28 09:16:03;;;;;;;5.00;2.13;;;;;;;27.90;27.51;100100.72;5106914;28;20050;-24
2023/07/28 09:18:29;;;;;;;7.28;2.30;;;;;;;28.38;25.53;100096.56;5106911;28;20027;-23
2023/07/28 09:20:55;;;;;;;2.63;1.80;;;;;;;28.65;24.16;100102.63;5106756;28;20047;-25
2023/07/28 09:23:29;;;;;;;3.25;1.98;;;;;;;28.38;24.94;100101.25;5106422;28;20031;-24
2023/07/28 09:26:02;;;;;;;5.00;2.50;;;;;;;28.55;25.46;100100.31;5106689;28;20024;-25
2023/07/28 09:28:41;;;;;;;3.50;2.30;;;;;;;28.63;25.88;100085.69;5106512;28;20054;-24
2023/07/28 09:31:08;;;;;;;3.17;2.13;;;;;;;28.79;25.73;100083.88;5106577;28;20038;-24
2023/07/28 09:33:35;;;;;;;3.72;2.20;;;;;;;29.18;24.05;100078.91;5106368;28;20027;-25
2023/07/28 09:36:12;;;;;;;4.72;2.25;;;;;;;28.91;24.80;100068.56;5106171;28;20036;-24
2023/07/28 09:38:41;;;;;;;4.28;2.15;;;;;;;29.53;24.18;100070.16;5106553;28;20030;-24
2023/07/28 09:41:10;;;;;;;3.40;2.03;;;;;;;29.38;22.80;100081.84;5106295;28;20031;-24
2023/07/28 09:43:40;;;;;;;3.13;2.13;;;;;;;29.41;22.70;100072.91;5106064;28;20080;-26
2023/07/28 09:46:09;;;;;;;4.07;2.20;;;;;;;29.43;22.89;100062.38;5106448;28;20080;-24
2023/07/28 09:48:38;;;;;;;7.43;2.40;;;;;;;29.53;23.01;100053.66;5106099;28;20020;-27
2023/07/28 09:51:12;;;;;;;3.92;2.00;;;;;;;29.86;23.20;100065.63;5105994;28;20126;-25
2023/07/28 09:53:44;;;;;;;4.07;2.38;;;;;;;29.95;22.96;100056.06;5106111;28;20028;-24
2023/07/28 09:56:10;;;;;;;4.32;2.50;;;;;;;29.84;23.51;100060.47;5106289;28;20114;-25
2023/07/28 09:58:41;;;;;;;3.25;2.22;;;;;;;30.20;22.31;100055.97;5105927;28;20052;-24
2023/07/28 10:01:08;;;;;;;3.72;2.30;;;;;;;30.16;21.67;100050.38;5105417;28;20123;-26
2023/07/28 10:03:34;;;;;;;4.10;2.20;;;;;;;30.07;21.14;100046.97;5105681;27;20031;-24
2023/07/28 10:05:59;;;;;;;5.47;2.25;;;;;;;29.75;21.59;100048.81;5106073;28;20024;-24
2023/07/28 10:08:25;;;;;;;3.95;2.30;;;;;;;29.77;20.73;100050.09;5105855;28;20084;-24
2023/07/28 10:10:52;;;;;;;4.68;1.90;;;;;;;30.15;21.77;100036.97;5105484;28;20031;-29
2023/07/28 10:13:22;;;;;;;3.78;2.30;;;;;;;30.38;22.88;100032.53;5106318;28;20050;-24
2023/07/28 10:15:50;;;;;;;5.20;2.22;;;;;;;30.31;22.91;100040.56;5105307;28;20032;-24
2023/07/28 10:18:15;;;;;;;3.80;2.28;;;;;;;30.53;22.18;100041.13;5105570;27;20023;-24
2023/07/28 10:20:43;;;;;;;4.65;2.13;;;;;;;30.38;21.65;100031.69;5105539;28;20034;-23
2023/07/28 10:23:22;;;;;;;3.70;1.90;;;;;;;30.49;20.57;100015.50;5105331;28;20034;-25
2023/07/28 10:25:56;;;;;;;2.78;1.83;;;;;;;30.75;20.90;100021.25;5105836;28;20100;-24
2023/07/28 10:28:41;;;;;;;4.22;2.00;;;;;;;30.88;20.65;100007.41;5105104;28;20108;-24
2023/07/28 10:31:12;;;;;;;3.15;1.77;;;;;;;30.95;17.12;100007.56;5105379;28;20087;-24
2023/07/28 10:33:48;;;;;;;3.65;1.90;;;;;;;31.02;19.08;100013.25;5105091;28;20027;-24
2023/07/28 10:36:22;;;;;;;5.60;2.00;;;;;;;30.92;18.28;100002.78;5105121;28;20557;-25
2023/07/28 10:39:07;;;;;;;3.85;2.35;;;;;;;30.77;18.62;99999.66;5105550;28;20085;-24
2023/07/28 10:41:35;;;;;;;6.82;2.78;;;;;;;31.33;18.60;100004.09;5105165;28;20496;-24
2023/07/28 10:44:00;;;;;;;3.40;2.45;;;;;;;31.42;18.60;99988.13;5105028;28;20028;-28
2023/07/28 10:46:28;;;;;;;4.00;2.05;;;;;;;31.29;18.99;99989.44;5104833;28;20040;-25
2023/07/28 10:48:53;;;;;;;2.80;1.90;;;;;;;31.76;19.51;99982.16;5104762;28;20097;-24
2023/07/28 10:51:28;;;;;;;3.33;1.73;;;;;;;31.76;18.82;99985.69;5104966;28;20057;-26
2023/07/28 10:53:57;;;;;;;2.75;1.60;;;;;;;32.41;17.50;99984.94;5104861;28;20053;-25
2023/07/28 10:56:23;;;;;;;4.30;2.58;;;;;;;32.57;18.02;99978.50;5105122;28;20027;-25
2023/07/28 10:59:01;;;;;;;3.28;2.20;;;;;;;32.61;16.18;99973.81;5105030;28;20020;-25
2023/07/28 11:01:33;;;;;;;5.22;2.00;;;;;;;32.77;16.27;99982.75;5104484;28;20074;-24
2023/07/28 11:04:10;;;;;;;3.63;1.95;;;;;;;32.84;14.99;99984.84;5104924;28;20173;-25
2023/07/28 11:06:35;;;;;;;3.72;1.83;;;;;;;32.57;14.17;99978.50;5104642;28;20599;-24
2023/07/28 11:09:01;;;;;;;4.50;1.80;;;;;;;32.54;13.67;99981.97;5105026;27;20036;-24
2023/07/28 11:11:27;;;;;;;3.22;1.83;;;;;;;32.79;13.94;99974.88;5104754;28;20016;-24
2023/07/28 11:13:54;;;;;;;3.25;1.90;;;;;;;32.55;12.71;99975.28;5104652;28;20036;-24
2023/07/28 11:16:21;;;;;;;2.78;1.70;;;;;;;32.48;14.43;99967.69;5104493;28;20097;-25
2023/07/28 11:18:46;;;;;;;3.75;1.88;;;;;;;32.23;14.56;99961.75;5104920;28;20111;-24
2023/07/28 11:21:11;;;;;;;8.30;1.98;;;;;;;32.38;16.08;99949.78;5104537;28;20087;-25